createdAt,value
2018-02-09T00:05:52.408Z,34.8
2018-02-09T00:25:52.586Z,36.6
2018-02-09T00:40:52.892Z,36.7
2018-02-09T00:55:52.728Z,38.2
2018-02-09T01:15:53.114Z,38.6
2018-02-09T01:45:53.632Z,37
2018-02-09T02:00:53.622Z,35.6
2018-02-09T02:20:53.404Z,35.6
2018-02-09T02:35:53.764Z,38.8
2018-02-09T02:50:54.078Z,40
2018-02-09T03:10:54.107Z,36
2018-02-09T03:25:59.406Z,39.7
2018-02-09T03:40:54.427Z,35.1
2018-02-09T03:55:54.596Z,39.7
2018-02-09T04:15:54.419Z,35.1
2018-02-09T04:30:54.407Z,36.2
2018-02-09T04:45:54.620Z,35.6
2018-02-09T05:05:54.873Z,38.3
2018-02-09T05:20:54.476Z,34.7
2018-02-09T05:35:54.725Z,38.7
2018-02-09T05:50:54.658Z,36.6
2018-02-09T06:10:54.814Z,36.5
2018-02-09T06:25:54.998Z,38.5
2018-02-09T06:40:54.853Z,38.8
2018-02-09T07:15:55.942Z,38.6
2018-02-09T07:30:56.177Z,39.1
2018-02-09T07:45:56.343Z,42.2
2018-02-09T08:05:56.330Z,37.4
2018-02-09T08:21:02.315Z,41.7
2018-02-09T08:35:57.075Z,40.5
2018-02-09T08:50:57.543Z,44.2
2018-02-09T09:10:57.231Z,41.4
2018-02-09T09:40:57.482Z,41.7
2018-02-09T10:00:57.276Z,41.2
2018-02-09T10:15:57.294Z,43.1
2018-02-09T10:30:57.493Z,41.9
2018-02-09T10:50:57.515Z,43.4
2018-02-09T11:05:57.299Z,41.6
2018-02-09T11:20:57.643Z,40.8
2018-02-09T11:35:57.340Z,42.4
2018-02-09T11:55:57.354Z,39.8
2018-02-09T12:25:57.539Z,44.4
2018-02-09T12:45:57.426Z,43
2018-02-09T13:00:57.559Z,38.1
2018-02-09T13:16:05.966Z,40.5
2018-02-09T13:31:00.829Z,39.7
2018-02-09T13:51:01.107Z,41.7
2018-02-09T14:06:00.983Z,39.5
2018-02-09T14:21:00.990Z,37.2
2018-02-09T14:41:01.227Z,39.9
2018-02-09T14:56:02.251Z,38.6
2018-02-09T15:11:01.024Z,38
2018-02-09T15:26:02.238Z,36.4
2018-02-09T15:46:01.055Z,35.5
2018-02-09T16:01:01.070Z,35.3
2018-02-09T16:16:01.053Z,37.5
2018-02-09T16:36:01.095Z,34.1
2018-02-09T16:51:01.289Z,34.3
2018-02-09T17:06:01.073Z,34.6
2018-02-09T17:21:04.057Z,39.7
2018-02-09T17:41:03.875Z,33.2
2018-02-09T17:56:01.219Z,36
2018-02-09T18:26:05.617Z,32
2018-02-09T18:46:05.514Z,34.7
2018-02-09T19:01:05.503Z,34.6
2018-02-09T19:16:05.521Z,32
2018-02-09T19:36:05.526Z,35
2018-02-09T19:51:05.694Z,33.5
2018-02-09T20:21:05.893Z,33.1
2018-02-09T21:11:05.700Z,29.2
2018-02-09T21:31:05.737Z,36.3
2018-02-09T21:46:05.728Z,36.2
2018-02-09T22:01:05.720Z,31.8
2018-02-09T22:16:05.761Z,34.9
2018-02-09T22:36:06.054Z,37.4
2018-02-09T22:51:05.926Z,35.2
2018-02-09T23:06:07.209Z,32.6
2018-02-09T23:26:06.893Z,35.8
2018-02-09T23:41:07.224Z,33.6
2018-02-09T23:56:07.360Z,33.4
